sensor_id;sensor_type;location;lat;lon;timestamp;pressure;altitude;pressure_sealevel;temperature;humidity
67430;BME280;54298;52.076;5.264;2022-09-17T00:00:02;101270.0;;;13.19;70.44
67430;BME280;54298;52.076;5.264;2022-09-17T00:01:38;101276.0;;;13.05;70.95
67430;BME280;54298;52.076;5.264;2022-09-17T00:03:15;101282.0;;;13.15;70.92
67430;BME280;54298;52.076;5.264;2022-09-17T00:06:28;101280.0;;;13.13;70.89
67430;BME280;54298;52.076;5.264;2022-09-17T00:08:08;101283.0;;;13.06;71.45
67430;BME280;54298;52.076;5.264;2022-09-17T00:09:46;101285.0;;;13.11;71.55
67430;BME280;54298;52.076;5.264;2022-09-17T00:13:01;101278.0;;;12.99;71.89
67430;BME280;54298;52.076;5.264;2022-09-17T00:14:39;101283.0;;;13.02;72.08
67430;BME280;54298;52.076;5.264;2022-09-17T00:16:23;101284.0;;;13.02;72.55
67430;BME280;54298;52.076;5.264;2022-09-17T00:18:00;101288.0;;;12.99;72.75
67430;BME280;54298;52.076;5.264;2022-09-17T00:21:15;101285.0;;;12.85;73.19
67430;BME280;54298;52.076;5.264;2022-09-17T00:22:51;101284.0;;;12.81;73.3
67430;BME280;54298;52.076;5.264;2022-09-17T00:24:28;101291.0;;;12.65;74.08
67430;BME280;54298;52.076;5.264;2022-09-17T00:27:40;101293.0;;;12.7;73.95
67430;BME280;54298;52.076;5.264;2022-09-17T00:29:16;101294.0;;;12.62;74.24
67430;BME280;54298;52.076;5.264;2022-09-17T00:30:52;101298.0;;;12.65;74.27
67430;BME280;54298;52.076;5.264;2022-09-17T00:32:29;101300.0;;;12.64;74.41
67430;BME280;54298;52.076;5.264;2022-09-17T00:35:43;101306.0;;;12.62;74.62
67430;BME280;54298;52.076;5.264;2022-09-17T00:37:20;101311.0;;;12.66;74.52
67430;BME280;54298;52.076;5.264;2022-09-17T00:38:58;101303.0;;;12.56;74.83
67430;BME280;54298;52.076;5.264;2022-09-17T00:42:14;101305.0;;;12.78;74.12
67430;BME280;54298;52.076;5.264;2022-09-17T00:43:54;101307.0;;;12.8;74.17
67430;BME280;54298;52.076;5.264;2022-09-17T00:45:31;101306.0;;;12.76;74.17
67430;BME280;54298;52.076;5.264;2022-09-17T00:47:12;101309.0;;;12.73;74.22
67430;BME280;54298;52.076;5.264;2022-09-17T00:50:32;101308.0;;;12.68;74.27
67430;BME280;54298;52.076;5.264;2022-09-17T00:52:13;101310.0;;;12.72;74.37
67430;BME280;54298;52.076;5.264;2022-09-17T00:53:50;101307.0;;;12.64;74.73
67430;BME280;54298;52.076;5.264;2022-09-17T00:55:29;101307.0;;;12.63;74.8
67430;BME280;54298;52.076;5.264;2022-09-17T00:58:43;101307.0;;;12.59;75.02
67430;BME280;54298;52.076;5.264;2022-09-17T01:00:20;101301.0;;;12.47;75.66
67430;BME280;54298;52.076;5.264;2022-09-17T01:01:58;101303.0;;;12.44;75.86
67430;BME280;54298;52.076;5.264;2022-09-17T01:05:12;101305.0;;;12.5;75.53
67430;BME280;54298;52.076;5.264;2022-09-17T01:06:58;101306.0;;;12.43;75.56
67430;BME280;54298;52.076;5.264;2022-09-17T01:08:54;101308.0;;;12.21;76.22
67430;BME280;54298;52.076;5.264;2022-09-17T01:10:50;101307.0;;;12.32;75.94
67430;BME280;54298;52.076;5.264;2022-09-17T01:12:49;101305.0;;;12.28;76.22
67430;BME280;54298;52.076;5.264;2022-09-17T01:14:43;101303.0;;;12.28;76.31
67430;BME280;54298;52.076;5.264;2022-09-17T01:16:36;101302.0;;;12.27;76.37
67430;BME280;54298;52.076;5.264;2022-09-17T01:20:35;101301.0;;;12.21;76.78
67430;BME280;54298;52.076;5.264;2022-09-17T01:22:44;101302.0;;;12.28;76.47
67430;BME280;54298;52.076;5.264;2022-09-17T01:24:43;101309.0;;;12.2;76.56
67430;BME280;54298;52.076;5.264;2022-09-17T01:26:53;101308.0;;;12.24;76.06
67430;BME280;54298;52.076;5.264;2022-09-17T01:30:26;101324.0;;;12.27;75.91
67430;BME280;54298;52.076;5.264;2022-09-17T01:32:37;101320.0;;;12.21;76.22
67430;BME280;54298;52.076;5.264;2022-09-17T01:34:23;101325.0;;;12.17;76.62
67430;BME280;54298;52.076;5.264;2022-09-17T01:36:12;101328.0;;;12.1;76.55
67430;BME280;54298;52.076;5.264;2022-09-17T01:38:10;101331.0;;;12.2;76.25
67430;BME280;54298;52.076;5.264;2022-09-17T01:39:58;101332.0;;;12.21;75.8
67430;BME280;54298;52.076;5.264;2022-09-17T01:41:40;101333.0;;;12.22;75.59
67430;BME280;54298;52.076;5.264;2022-09-17T01:45:13;101334.0;;;12.22;75.73
67430;BME280;54298;52.076;5.264;2022-09-17T01:46:56;101338.0;;;12.23;74.84
67430;BME280;54298;52.076;5.264;2022-09-17T01:48:41;101341.0;;;12.13;73.87
67430;BME280;54298;52.076;5.264;2022-09-17T01:50:24;101333.0;;;12.22;73.22
67430;BME280;54298;52.076;5.264;2022-09-17T01:52:07;101334.0;;;12.48;72.89
67430;BME280;54298;52.076;5.264;2022-09-17T01:55:32;101333.0;;;12.57;72.52
67430;BME280;54298;52.076;5.264;2022-09-17T01:57:15;101334.0;;;12.65;71.47
67430;BME280;54298;52.076;5.264;2022-09-17T01:58:59;101334.0;;;12.63;71.55
67430;BME280;54298;52.076;5.264;2022-09-17T02:00:39;101330.0;;;12.61;71.24
67430;BME280;54298;52.076;5.264;2022-09-17T02:04:06;101332.0;;;12.73;70.45
67430;BME280;54298;52.076;5.264;2022-09-17T02:05:48;101333.0;;;12.77;69.72
67430;BME280;54298;52.076;5.264;2022-09-17T02:07:30;101331.0;;;12.58;70.36
67430;BME280;54298;52.076;5.264;2022-09-17T02:09:14;101336.0;;;12.82;69.44
67430;BME280;54298;52.076;5.264;2022-09-17T02:10:57;101336.0;;;12.84;69.55
67430;BME280;54298;52.076;5.264;2022-09-17T02:14:20;101341.0;;;12.93;69.11
67430;BME280;54298;52.076;5.264;2022-09-17T02:16:04;101335.0;;;12.93;68.91
67430;BME280;54298;52.076;5.264;2022-09-17T02:17:47;101337.0;;;12.92;68.88
67430;BME280;54298;52.076;5.264;2022-09-17T02:19:27;101335.0;;;12.81;68.87
67430;BME280;54298;52.076;5.264;2022-09-17T02:22:49;101335.0;;;12.91;68.67
67430;BME280;54298;52.076;5.264;2022-09-17T02:24:32;101335.0;;;12.88;69.11
67430;BME280;54298;52.076;5.264;2022-09-17T02:26:15;101341.0;;;12.79;68.62
67430;BME280;54298;52.076;5.264;2022-09-17T02:28:00;101342.0;;;12.78;69.23
67430;BME280;54298;52.076;5.264;2022-09-17T02:29:40;101345.0;;;12.76;68.89
67430;BME280;54298;52.076;5.264;2022-09-17T02:32:53;101341.0;;;12.75;68.72
67430;BME280;54298;52.076;5.264;2022-09-17T02:34:30;101344.0;;;12.68;68.94
67430;BME280;54298;52.076;5.264;2022-09-17T02:36:07;101342.0;;;12.6;69.34
67430;BME280;54298;52.076;5.264;2022-09-17T02:39:21;101339.0;;;12.52;69.86
67430;BME280;54298;52.076;5.264;2022-09-17T02:41:05;101341.0;;;12.49;70.08
67430;BME280;54298;52.076;5.264;2022-09-17T02:42:58;101340.0;;;12.52;70.03
67430;BME280;54298;52.076;5.264;2022-09-17T02:44:46;101345.0;;;12.42;70.56
67430;BME280;54298;52.076;5.264;2022-09-17T02:46:46;101347.0;;;12.4;70.83
67430;BME280;54298;52.076;5.264;2022-09-17T02:48:46;101357.0;;;12.41;70.99
67430;BME280;54298;52.076;5.264;2022-09-17T02:50:54;101358.0;;;12.48;71.19
67430;BME280;54298;52.076;5.264;2022-09-17T02:52:45;101353.0;;;12.42;71.74
67430;BME280;54298;52.076;5.264;2022-09-17T02:56:20;101349.0;;;12.41;71.45
67430;BME280;54298;52.076;5.264;2022-09-17T02:58:08;101348.0;;;12.52;71.05
67430;BME280;54298;52.076;5.264;2022-09-17T02:59:55;101341.0;;;12.49;71.08
67430;BME280;54298;52.076;5.264;2022-09-17T03:01:39;101341.0;;;12.59;70.99
67430;BME280;54298;52.076;5.264;2022-09-17T03:03:21;101340.0;;;12.52;71.38
67430;BME280;54298;52.076;5.264;2022-09-17T03:06:44;101339.0;;;12.47;71.52
67430;BME280;54298;52.076;5.264;2022-09-17T03:08:27;101352.0;;;12.52;71.48
67430;BME280;54298;52.076;5.264;2022-09-17T03:10:04;101349.0;;;12.51;71.66
67430;BME280;54298;52.076;5.264;2022-09-17T03:11:41;101351.0;;;12.54;71.41
67430;BME280;54298;52.076;5.264;2022-09-17T03:14:55;101350.0;;;12.55;71.8
67430;BME280;54298;52.076;5.264;2022-09-17T03:16:31;101349.0;;;12.5;71.66
67430;BME280;54298;52.076;5.264;2022-09-17T03:18:08;101340.0;;;12.58;71.47
67430;BME280;54298;52.076;5.264;2022-09-17T03:21:20;101333.0;;;12.55;71.61
67430;BME280;54298;52.076;5.264;2022-09-17T03:22:56;101335.0;;;12.64;71.77
67430;BME280;54298;52.076;5.264;2022-09-17T03:24:32;101327.0;;;12.73;71.55
67430;BME280;54298;52.076;5.264;2022-09-17T03:26:08;101331.0;;;12.75;71.47
67430;BME280;54298;52.076;5.264;2022-09-17T03:29:21;101323.0;;;12.71;71.61
67430;BME280;54298;52.076;5.264;2022-09-17T03:30:57;101328.0;;;12.67;71.64
67430;BME280;54298;52.076;5.264;2022-09-17T03:32:34;101330.0;;;12.48;72.52
67430;BME280;54298;52.076;5.264;2022-09-17T03:35:46;101331.0;;;12.39;72.94
67430;BME280;54298;52.076;5.264;2022-09-17T03:37:23;101330.0;;;12.35;73.08
67430;BME280;54298;52.076;5.264;2022-09-17T03:39:01;101331.0;;;12.33;73.23
67430;BME280;54298;52.076;5.264;2022-09-17T03:42:13;101337.0;;;12.33;73.37
67430;BME280;54298;52.076;5.264;2022-09-17T03:43:49;101341.0;;;12.21;73.66
67430;BME280;54298;52.076;5.264;2022-09-17T03:45:26;101341.0;;;12.19;73.88
67430;BME280;54298;52.076;5.264;2022-09-17T03:47:03;101342.0;;;12.19;73.8
67430;BME280;54298;52.076;5.264;2022-09-17T03:50:15;101341.0;;;11.99;74.42
67430;BME280;54298;52.076;5.264;2022-09-17T03:51:51;101345.0;;;12.01;74.5
67430;BME280;54298;52.076;5.264;2022-09-17T03:53:28;101348.0;;;11.94;74.86
67430;BME280;54298;52.076;5.264;2022-09-17T03:56:41;101355.0;;;11.89;75.16
67430;BME280;54298;52.076;5.264;2022-09-17T03:58:17;101358.0;;;11.79;75.39
67430;BME280;54298;52.076;5.264;2022-09-17T03:59:53;101368.0;;;11.75;75.91
67430;BME280;54298;52.076;5.264;2022-09-17T04:03:06;101373.0;;;11.78;76.08
67430;BME280;54298;52.076;5.264;2022-09-17T04:04:43;101376.0;;;11.78;76.11
67430;BME280;54298;52.076;5.264;2022-09-17T04:06:19;101373.0;;;11.72;76.13
67430;BME280;54298;52.076;5.264;2022-09-17T04:07:56;101372.0;;;11.8;75.77
67430;BME280;54298;52.076;5.264;2022-09-17T04:11:09;101372.0;;;11.8;75.95
67430;BME280;54298;52.076;5.264;2022-09-17T04:12:45;101366.0;;;11.72;75.55
67430;BME280;54298;52.076;5.264;2022-09-17T04:14:21;101362.0;;;11.8;75.44
67430;BME280;54298;52.076;5.264;2022-09-17T04:17:33;101365.0;;;11.68;73.94
67430;BME280;54298;52.076;5.264;2022-09-17T04:19:10;101366.0;;;11.54;73.37
67430;BME280;54298;52.076;5.264;2022-09-17T04:20:47;101368.0;;;11.69;72.55
67430;BME280;54298;52.076;5.264;2022-09-17T04:24:00;101366.0;;;11.83;72.52
67430;BME280;54298;52.076;5.264;2022-09-17T04:25:36;101369.0;;;11.82;72.2
67430;BME280;54298;52.076;5.264;2022-09-17T04:27:13;101370.0;;;11.81;71.52
67430;BME280;54298;52.076;5.264;2022-09-17T04:28:49;101371.0;;;11.85;71.11
67430;BME280;54298;52.076;5.264;2022-09-17T04:32:03;101369.0;;;11.88;70.77
67430;BME280;54298;52.076;5.264;2022-09-17T04:33:38;101368.0;;;11.93;70.88
67430;BME280;54298;52.076;5.264;2022-09-17T04:35:15;101367.0;;;11.91;70.87
67430;BME280;54298;52.076;5.264;2022-09-17T04:38:28;101373.0;;;11.89;70.94
67430;BME280;54298;52.076;5.264;2022-09-17T04:40:05;101374.0;;;11.78;71.0
67430;BME280;54298;52.076;5.264;2022-09-17T04:41:42;101370.0;;;11.74;71.36
67430;BME280;54298;52.076;5.264;2022-09-17T04:44:54;101371.0;;;11.79;70.58
67430;BME280;54298;52.076;5.264;2022-09-17T04:46:31;101362.0;;;11.69;70.08
67430;BME280;54298;52.076;5.264;2022-09-17T04:48:07;101367.0;;;11.73;69.94
67430;BME280;54298;52.076;5.264;2022-09-17T04:51:19;101363.0;;;11.63;69.39
67430;BME280;54298;52.076;5.264;2022-09-17T04:52:55;101366.0;;;11.72;69.24
67430;BME280;54298;52.076;5.264;2022-09-17T04:54:32;101369.0;;;11.73;68.61
67430;BME280;54298;52.076;5.264;2022-09-17T04:56:08;101371.0;;;11.74;68.91
67430;BME280;54298;52.076;5.264;2022-09-17T04:59:22;101369.0;;;11.78;68.36
67430;BME280;54298;52.076;5.264;2022-09-17T05:00:58;101373.0;;;11.72;68.3
67430;BME280;54298;52.076;5.264;2022-09-17T05:02:34;101370.0;;;11.75;68.41
67430;BME280;54298;52.076;5.264;2022-09-17T05:05:46;101373.0;;;11.78;68.11
67430;BME280;54298;52.076;5.264;2022-09-17T05:07:23;101373.0;;;11.82;68.36
67430;BME280;54298;52.076;5.264;2022-09-17T05:08:59;101371.0;;;11.73;68.37
67430;BME280;54298;52.076;5.264;2022-09-17T05:12:12;101378.0;;;11.77;68.52
67430;BME280;54298;52.076;5.264;2022-09-17T05:13:48;101381.0;;;11.84;68.41
67430;BME280;54298;52.076;5.264;2022-09-17T05:15:24;101383.0;;;11.8;68.97
67430;BME280;54298;52.076;5.264;2022-09-17T05:17:01;101384.0;;;11.73;68.83
67430;BME280;54298;52.076;5.264;2022-09-17T05:20:14;101378.0;;;11.69;69.5
67430;BME280;54298;52.076;5.264;2022-09-17T05:21:51;101387.0;;;11.75;69.16
67430;BME280;54298;52.076;5.264;2022-09-17T05:23:28;101392.0;;;11.76;69.28
67430;BME280;54298;52.076;5.264;2022-09-17T05:26:41;101392.0;;;11.68;69.55
67430;BME280;54298;52.076;5.264;2022-09-17T05:28:17;101392.0;;;11.72;69.58
67430;BME280;54298;52.076;5.264;2022-09-17T05:29:53;101393.0;;;11.75;69.73
67430;BME280;54298;52.076;5.264;2022-09-17T05:33:06;101397.0;;;11.73;69.88
67430;BME280;54298;52.076;5.264;2022-09-17T05:34:43;101397.0;;;11.67;70.38
67430;BME280;54298;52.076;5.264;2022-09-17T05:36:19;101400.0;;;11.78;70.02
67430;BME280;54298;52.076;5.264;2022-09-17T05:37:57;101401.0;;;11.81;70.06
67430;BME280;54298;52.076;5.264;2022-09-17T05:41:09;101400.0;;;11.81;70.02
67430;BME280;54298;52.076;5.264;2022-09-17T05:42:45;101400.0;;;11.84;70.72
67430;BME280;54298;52.076;5.264;2022-09-17T05:47:36;101403.0;;;11.8;70.41
67430;BME280;54298;52.076;5.264;2022-09-17T05:49:14;101405.0;;;11.96;70.17
67430;BME280;54298;52.076;5.264;2022-09-17T05:50:50;101397.0;;;12.15;69.86
67430;BME280;54298;52.076;5.264;2022-09-17T05:54:05;101396.0;;;12.24;69.81
67430;BME280;54298;52.076;5.264;2022-09-17T05:55:41;101405.0;;;12.3;69.39
67430;BME280;54298;52.076;5.264;2022-09-17T05:57:19;101411.0;;;12.19;70.2
67430;BME280;54298;52.076;5.264;2022-09-17T05:58:56;101411.0;;;12.22;72.03
67430;BME280;54298;52.076;5.264;2022-09-17T06:02:11;101405.0;;;12.35;71.49
67430;BME280;54298;52.076;5.264;2022-09-17T06:03:48;101403.0;;;12.32;71.87
67430;BME280;54298;52.076;5.264;2022-09-17T06:05:25;101396.0;;;12.41;71.77
67430;BME280;54298;52.076;5.264;2022-09-17T06:08:40;101403.0;;;12.31;72.72
67430;BME280;54298;52.076;5.264;2022-09-17T06:10:16;101394.0;;;12.39;72.31
67430;BME280;54298;52.076;5.264;2022-09-17T06:11:52;101405.0;;;12.44;72.2
67430;BME280;54298;52.076;5.264;2022-09-17T06:13:30;101405.0;;;12.46;72.87
67430;BME280;54298;52.076;5.264;2022-09-17T06:16:46;101402.0;;;12.44;72.62
67430;BME280;54298;52.076;5.264;2022-09-17T06:18:23;101408.0;;;12.35;73.16
67430;BME280;54298;52.076;5.264;2022-09-17T06:20:00;101406.0;;;12.35;73.83
67430;BME280;54298;52.076;5.264;2022-09-17T06:23:14;101415.0;;;12.19;74.41
67430;BME280;54298;52.076;5.264;2022-09-17T06:24:50;101415.0;;;12.29;74.09
67430;BME280;54298;52.076;5.264;2022-09-17T06:26:27;101414.0;;;12.37;73.39
67430;BME280;54298;52.076;5.264;2022-09-17T06:29:40;101418.0;;;12.26;73.83
67430;BME280;54298;52.076;5.264;2022-09-17T06:31:16;101425.0;;;12.32;73.78
67430;BME280;54298;52.076;5.264;2022-09-17T06:32:53;101432.0;;;12.3;73.62
67430;BME280;54298;52.076;5.264;2022-09-17T06:34:29;101428.0;;;12.48;73.33
67430;BME280;54298;52.076;5.264;2022-09-17T06:37:45;101427.0;;;12.53;73.42
67430;BME280;54298;52.076;5.264;2022-09-17T06:39:21;101426.0;;;12.51;73.08
67430;BME280;54298;52.076;5.264;2022-09-17T06:40:57;101428.0;;;12.43;73.22
67430;BME280;54298;52.076;5.264;2022-09-17T06:44:09;101422.0;;;12.48;73.12
67430;BME280;54298;52.076;5.264;2022-09-17T06:45:51;101424.0;;;12.66;72.3
67430;BME280;54298;52.076;5.264;2022-09-17T06:47:27;101426.0;;;12.79;71.75
67430;BME280;54298;52.076;5.264;2022-09-17T06:49:03;101427.0;;;12.68;71.86
67430;BME280;54298;52.076;5.264;2022-09-17T06:52:16;101427.0;;;12.77;71.42
67430;BME280;54298;52.076;5.264;2022-09-17T06:53:52;101436.0;;;12.77;71.55
67430;BME280;54298;52.076;5.264;2022-09-17T06:55:28;101435.0;;;12.84;72.23
67430;BME280;54298;52.076;5.264;2022-09-17T06:58:42;101437.0;;;12.84;72.0
67430;BME280;54298;52.076;5.264;2022-09-17T07:00:19;101436.0;;;12.92;72.3
67430;BME280;54298;52.076;5.264;2022-09-17T07:01:55;101434.0;;;12.87;71.52
67430;BME280;54298;52.076;5.264;2022-09-17T07:05:08;101437.0;;;13.04;71.31
67430;BME280;54298;52.076;5.264;2022-09-17T07:06:44;101435.0;;;13.02;71.53
67430;BME280;54298;52.076;5.264;2022-09-17T07:08:21;101442.0;;;13.13;71.58
67430;BME280;54298;52.076;5.264;2022-09-17T07:09:57;101448.0;;;13.24;71.97
67430;BME280;54298;52.076;5.264;2022-09-17T07:13:11;101450.0;;;13.38;71.45
67430;BME280;54298;52.076;5.264;2022-09-17T07:14:47;101451.0;;;13.45;71.55
67430;BME280;54298;52.076;5.264;2022-09-17T07:16:24;101448.0;;;13.45;70.81
67430;BME280;54298;52.076;5.264;2022-09-17T07:19:44;101442.0;;;13.49;70.58
67430;BME280;54298;52.076;5.264;2022-09-17T07:21:20;101439.0;;;13.38;70.8
67430;BME280;54298;52.076;5.264;2022-09-17T07:22:56;101439.0;;;13.31;71.19
67430;BME280;54298;52.076;5.264;2022-09-17T07:24:33;101442.0;;;13.3;71.31
67430;BME280;54298;52.076;5.264;2022-09-17T07:27:49;101441.0;;;13.42;71.02
67430;BME280;54298;52.076;5.264;2022-09-17T07:29:26;101444.0;;;13.37;71.09
67430;BME280;54298;52.076;5.264;2022-09-17T07:31:04;101444.0;;;13.42;70.41
67430;BME280;54298;52.076;5.264;2022-09-17T07:34:17;101439.0;;;13.39;70.44
67430;BME280;54298;52.076;5.264;2022-09-17T07:35:54;101441.0;;;13.42;70.58
67430;BME280;54298;52.076;5.264;2022-09-17T07:37:32;101442.0;;;13.41;69.78
67430;BME280;54298;52.076;5.264;2022-09-17T07:40:52;101442.0;;;13.46;69.3
67430;BME280;54298;52.076;5.264;2022-09-17T07:42:28;101442.0;;;13.43;69.05
67430;BME280;54298;52.076;5.264;2022-09-17T07:44:06;101442.0;;;13.55;68.73
67430;BME280;54298;52.076;5.264;2022-09-17T07:45:41;101438.0;;;13.59;68.84
67430;BME280;54298;52.076;5.264;2022-09-17T07:48:54;101439.0;;;13.56;68.77
67430;BME280;54298;52.076;5.264;2022-09-17T07:50:32;101436.0;;;13.7;68.52
67430;BME280;54298;52.076;5.264;2022-09-17T07:52:08;101440.0;;;13.83;68.27
67430;BME280;54298;52.076;5.264;2022-09-17T07:55:26;101438.0;;;13.81;68.41
67430;BME280;54298;52.076;5.264;2022-09-17T07:57:02;101440.0;;;13.77;68.64
67430;BME280;54298;52.076;5.264;2022-09-17T07:58:39;101441.0;;;13.93;67.24
67430;BME280;54298;52.076;5.264;2022-09-17T08:00:15;101446.0;;;14.03;67.83
67430;BME280;54298;52.076;5.264;2022-09-17T08:03:27;101438.0;;;14.18;67.49
67430;BME280;54298;52.076;5.264;2022-09-17T08:05:04;101438.0;;;13.94;66.25
67430;BME280;54298;52.076;5.264;2022-09-17T08:06:41;101438.0;;;14.13;66.05
67430;BME280;54298;52.076;5.264;2022-09-17T08:09:53;101440.0;;;14.19;66.38
67430;BME280;54298;52.076;5.264;2022-09-17T08:11:30;101439.0;;;14.37;66.33
67430;BME280;54298;52.076;5.264;2022-09-17T08:13:06;101437.0;;;14.25;64.14
67430;BME280;54298;52.076;5.264;2022-09-17T08:16:20;101433.0;;;14.44;64.05
67430;BME280;54298;52.076;5.264;2022-09-17T08:17:57;101434.0;;;14.42;64.48
67430;BME280;54298;52.076;5.264;2022-09-17T08:19:33;101433.0;;;14.47;63.18
67430;BME280;54298;52.076;5.264;2022-09-17T08:21:12;101436.0;;;14.49;64.09
67430;BME280;54298;52.076;5.264;2022-09-17T08:24:25;101439.0;;;14.59;64.08
67430;BME280;54298;52.076;5.264;2022-09-17T08:26:03;101435.0;;;14.64;63.3
67430;BME280;54298;52.076;5.264;2022-09-17T08:27:40;101434.0;;;14.74;63.15
67430;BME280;54298;52.076;5.264;2022-09-17T08:30:53;101437.0;;;14.71;62.18
67430;BME280;54298;52.076;5.264;2022-09-17T08:32:34;101436.0;;;14.92;61.87
67430;BME280;54298;52.076;5.264;2022-09-17T08:34:10;101435.0;;;15.05;62.08
67430;BME280;54298;52.076;5.264;2022-09-17T08:35:50;101440.0;;;14.6;62.51
67430;BME280;54298;52.076;5.264;2022-09-17T08:39:03;101442.0;;;14.86;62.04
67430;BME280;54298;52.076;5.264;2022-09-17T08:40:44;101441.0;;;14.97;61.45
67430;BME280;54298;52.076;5.264;2022-09-17T08:42:36;101451.0;;;14.99;62.11
67430;BME280;54298;52.076;5.264;2022-09-17T08:44:23;101466.0;;;14.71;63.95
67430;BME280;54298;52.076;5.264;2022-09-17T08:47:39;101465.0;;;14.75;64.38
67430;BME280;54298;52.076;5.264;2022-09-17T08:49:29;101469.0;;;14.69;64.38
67430;BME280;54298;52.076;5.264;2022-09-17T08:51:16;101470.0;;;14.69;63.47
67430;BME280;54298;52.076;5.264;2022-09-17T08:53:28;101472.0;;;14.8;64.7
67430;BME280;54298;52.076;5.264;2022-09-17T08:55:19;101470.0;;;14.77;65.3
67430;BME280;54298;52.076;5.264;2022-09-17T08:57:08;101474.0;;;14.72;65.06
67430;BME280;54298;52.076;5.264;2022-09-17T08:59:02;101488.0;;;14.57;64.74
67430;BME280;54298;52.076;5.264;2022-09-17T09:02:37;101476.0;;;14.66;64.6
67430;BME280;54298;52.076;5.264;2022-09-17T09:04:38;101484.0;;;14.61;65.08
67430;BME280;54298;52.076;5.264;2022-09-17T09:06:23;101489.0;;;14.55;65.16
67430;BME280;54298;52.076;5.264;2022-09-17T09:08:05;101481.0;;;14.41;65.31
67430;BME280;54298;52.076;5.264;2022-09-17T09:09:52;101483.0;;;14.4;65.62
67430;BME280;54298;52.076;5.264;2022-09-17T09:11:33;101482.0;;;14.46;65.6
67430;BME280;54298;52.076;5.264;2022-09-17T09:14:57;101482.0;;;14.45;66.12
67430;BME280;54298;52.076;5.264;2022-09-17T09:16:39;101482.0;;;14.45;66.17
67430;BME280;54298;52.076;5.264;2022-09-17T09:18:18;101480.0;;;14.54;66.72
67430;BME280;54298;52.076;5.264;2022-09-17T09:19:55;101477.0;;;14.53;66.63
67430;BME280;54298;52.076;5.264;2022-09-17T09:23:28;101483.0;;;14.48;66.55
67430;BME280;54298;52.076;5.264;2022-09-17T09:25:19;101483.0;;;14.41;67.08
67430;BME280;54298;52.076;5.264;2022-09-17T09:26:59;101480.0;;;14.38;67.45
67430;BME280;54298;52.076;5.264;2022-09-17T09:29:23;101484.0;;;14.44;67.77
67430;BME280;54298;52.076;5.264;2022-09-17T09:31:19;101483.0;;;14.25;68.52
67430;BME280;54298;52.076;5.264;2022-09-17T09:33:11;101471.0;;;14.35;69.0
67430;BME280;54298;52.076;5.264;2022-09-17T09:34:48;101480.0;;;14.29;69.39
67430;BME280;54298;52.076;5.264;2022-09-17T09:36:27;101476.0;;;14.19;69.28
67430;BME280;54298;52.076;5.264;2022-09-17T09:40:02;101474.0;;;14.2;68.99
67430;BME280;54298;52.076;5.264;2022-09-17T09:41:58;101478.0;;;14.13;69.44
67430;BME280;54298;52.076;5.264;2022-09-17T09:43:40;101478.0;;;14.2;67.91
67430;BME280;54298;52.076;5.264;2022-09-17T09:47:34;101482.0;;;14.36;68.28
67430;BME280;54298;52.076;5.264;2022-09-17T09:49:29;101476.0;;;14.45;66.24
67430;BME280;54298;52.076;5.264;2022-09-17T09:51:23;101475.0;;;14.38;66.37
67430;BME280;54298;52.076;5.264;2022-09-17T09:53:10;101471.0;;;14.5;66.02
67430;BME280;54298;52.076;5.264;2022-09-17T09:56:54;101469.0;;;14.57;65.3
67430;BME280;54298;52.076;5.264;2022-09-17T09:58:34;101475.0;;;14.75;64.94
67430;BME280;54298;52.076;5.264;2022-09-17T10:00:23;101489.0;;;14.83;65.86
67430;BME280;54298;52.076;5.264;2022-09-17T10:01:59;101490.0;;;14.89;67.85
67430;BME280;54298;52.076;5.264;2022-09-17T10:03:39;101485.0;;;14.81;68.44
67430;BME280;54298;52.076;5.264;2022-09-17T10:06:53;101481.0;;;14.77;68.2
67430;BME280;54298;52.076;5.264;2022-09-17T10:08:37;101476.0;;;14.57;68.64
67430;BME280;54298;52.076;5.264;2022-09-17T10:10:13;101472.0;;;14.79;69.77
67430;BME280;54298;52.076;5.264;2022-09-17T10:13:52;101480.0;;;14.73;71.61
67430;BME280;54298;52.076;5.264;2022-09-17T10:15:50;101484.0;;;14.49;72.78
67430;BME280;54298;52.076;5.264;2022-09-17T10:17:28;101477.0;;;14.56;70.14
67430;BME280;54298;52.076;5.264;2022-09-17T10:19:12;101482.0;;;14.32;69.47
67430;BME280;54298;52.076;5.264;2022-09-17T10:20:51;101489.0;;;14.68;70.17
67430;BME280;54298;52.076;5.264;2022-09-17T10:22:30;101471.0;;;14.67;67.47
67430;BME280;54298;52.076;5.264;2022-09-17T10:25:57;101474.0;;;14.75;68.31
67430;BME280;54298;52.076;5.264;2022-09-17T10:27:35;101475.0;;;14.82;67.87
67430;BME280;54298;52.076;5.264;2022-09-17T10:29:14;101471.0;;;14.92;65.2
67430;BME280;54298;52.076;5.264;2022-09-17T10:30:55;101466.0;;;15.1;66.28
67430;BME280;54298;52.076;5.264;2022-09-17T10:34:18;101465.0;;;15.01;63.21
67430;BME280;54298;52.076;5.264;2022-09-17T10:36:00;101462.0;;;15.28;63.36
67430;BME280;54298;52.076;5.264;2022-09-17T10:37:43;101455.0;;;15.02;59.8
67430;BME280;54298;52.076;5.264;2022-09-17T10:39:29;101465.0;;;15.3;62.77
67430;BME280;54298;52.076;5.264;2022-09-17T10:42:50;101461.0;;;15.22;61.54
67430;BME280;54298;52.076;5.264;2022-09-17T10:44:52;101457.0;;;15.48;61.72
67430;BME280;54298;52.076;5.264;2022-09-17T10:46:33;101462.0;;;15.58;60.87
67430;BME280;54298;52.076;5.264;2022-09-17T10:48:15;101455.0;;;15.43;60.52
67430;BME280;54298;52.076;5.264;2022-09-17T10:49:54;101453.0;;;15.6;60.39
67430;BME280;54298;52.076;5.264;2022-09-17T10:53:16;101451.0;;;15.59;58.53
67430;BME280;54298;52.076;5.264;2022-09-17T10:57:08;101445.0;;;15.79;57.36
67430;BME280;54298;52.076;5.264;2022-09-17T10:58:56;101445.0;;;15.85;57.42
67430;BME280;54298;52.076;5.264;2022-09-17T11:00:44;101445.0;;;15.53;57.89
67430;BME280;54298;52.076;5.264;2022-09-17T11:02:48;101439.0;;;15.71;57.34
67430;BME280;54298;52.076;5.264;2022-09-17T11:06:37;101428.0;;;15.88;56.6
67430;BME280;54298;52.076;5.264;2022-09-17T11:10:03;101423.0;;;15.9;56.94
67430;BME280;54298;52.076;5.264;2022-09-17T11:11:56;101421.0;;;16.09;57.92
67430;BME280;54298;52.076;5.264;2022-09-17T11:13:44;101411.0;;;15.99;55.86
67430;BME280;54298;52.076;5.264;2022-09-17T11:15:33;101416.0;;;16.03;56.38